Albert Maersk — OUOW2 — position and weather

sailwx.info

Track history (hours):
 
Tides and Currents Weather Stations Pressure Air Temp Water Temp Dewpoint Dewpoint Depression Visibility Wind Speed Wind Dir Waves Ship Positions

Albert Maersk

Last reported at 2016-Jun-30 06:31 UTC. Time now 2016-Jul-01 20:47 UTC.
Position N 25°54' W 079°53'.

MMSI: 220259928.

Date/timePositionNaut miles runAvg speedWind from/ knotsBaromVisibWave heightAir tempDewpointWater temp
2016-Jun-30 06:31N 25°54' W 079°53'1515.7
2016-Jun-30 05:33N 25°45' W 080°07'2 0.2
2016-Jun-29 18:32N 25°46' W 080°09'0 0.0
2016-Jun-29 17:32N 25°46' W 080°09'0 0.0
2016-Jun-29 16:32N 25°46' W 080°09'0 0.0
2016-Jun-29 10:30N 25°46' W 080°09'4 4.3
2016-Jun-29 09:33N 25°46' W 080°05'3 2.9
2016-Jun-29 08:34N 25°47' W 080°02'4 3.7
2016-Jun-29 07:33N 25°50' W 080°01'6 6.4
2016-Jun-29 06:33N 25°56' W 079°59'9 9.0
2016-Jun-29 05:33N 26°05' W 079°58'9 9.2
2016-Jun-29 04:33N 26°14' W 079°56'9 9.1
2016-Jun-29 03:33N 26°24' W 079°55'9 9.2
2016-Jun-29 02:33N 26°33' W 079°54'9 9.2
2016-Jun-29 01:33N 26°42' W 079°53'9 9.3
2016-Jun-29 00:32N 26°51' W 079°54'8 8.5
2016-Jun-28 23:33N 26°59' W 079°54'7 7.4
2016-Jun-28 22:33N 27°07' W 079°55'24311.0
2016-Jun-28 00:33N 31°09' W 080°16'2411.5
2016-Jun-27 22:26N 31°33' W 080°21'2211.7
2016-Jun-27 20:33N 31°52' W 080°34'1110.7
2016-Jun-27 19:33N 31°58' W 080°44'1111.4
2016-Jun-27 18:34N 32°03' W 080°56'7 7.2
2016-Jun-27 17:33N 32°05' W 081°04'5 4.5
2016-Jun-27 16:31N 32°08' W 081°08'0 0.4
2016-Jun-27 15:31N 32°08' W 081°09'0 0.0
2016-Jun-27 14:31N 32°08' W 081°09'0 0.0
2016-Jun-27 13:31N 32°08' W 081°09'0 0.0
2016-Jun-27 12:19N 32°08' W 081°09'0 0.0
2016-Jun-27 11:31N 32°08' W 081°09'0 0.0
2016-Jun-27 10:19N 32°08' W 081°09'0 0.0
2016-Jun-27 09:25N 32°08' W 081°09'0 0.0
2016-Jun-27 08:31N 32°08' W 081°09'0 0.0
2016-Jun-27 07:31N 32°08' W 081°09'0 0.0
2016-Jun-27 06:31N 32°08' W 081°09'0 0.0
2016-Jun-27 05:31N 32°08' W 081°09'0 0.0
2016-Jun-27 04:31N 32°08' W 081°09'0 0.0
2016-Jun-27 03:25N 32°08' W 081°09'0 0.0
2016-Jun-27 02:31N 32°08' W 081°09'0 0.0
2016-Jun-27 01:31N 32°08' W 081°09'0 0.0
2016-Jun-27 00:31N 32°08' W 081°09'0 0.0
2016-Jun-26 23:25N 32°08' W 081°09'0 0.0
2016-Jun-26 22:31N 32°08' W 081°09'0 0.0
2016-Jun-26 21:31N 32°08' W 081°09'0 0.0
2016-Jun-26 20:31N 32°08' W 081°09'0 0.0
2016-Jun-26 19:31N 32°08' W 081°09'0 0.0
2016-Jun-26 18:31N 32°08' W 081°09'0 0.0
2016-Jun-26 17:31N 32°08' W 081°09'0 0.0
2016-Jun-26 16:31N 32°08' W 081°09'2 1.6
2016-Jun-26 15:33N 32°07' W 081°08'6 5.8
2016-Jun-26 14:33N 32°06' W 081°01'1211.7
2016-Jun-26 13:33N 32°01' W 080°48'1111.0
2016-Jun-26 12:33N 31°56' W 080°37'1111.0
2016-Jun-26 11:32N 31°60' W 080°24'1110.4
2016-Jun-26 10:31N 32°04' W 080°13'49 1.8
2016-Jun-25 07:13N 32°37' W 079°31'812.0
2016-Jun-25 06:33N 32°39' W 079°22'17617.4
2016-Jun-24 20:24N 34°08' W 076°19'1517.5
2016-Jun-24 19:34N 34°18' W 076°06'1716.9
2016-Jun-24 18:34N 34°30' W 075°51'31018.9
2016-Jun-24 02:10N 39°25' W 073°55'1219.6
2016-Jun-24 01:34N 39°37' W 073°54'2019.9
2016-Jun-24 00:33N 39°57' W 073°52'2519.5
2016-Jun-23 23:15N 40°22' W 073°48'7 9.8
2016-Jun-23 22:33N 40°28' W 073°53'1313.1
2016-Jun-23 21:34N 40°38' W 074°04'4 3.5
2016-Jun-23 20:22N 40°41' W 074°08'1 0.1
2016-Jun-23 15:32N 40°41' W 074°09'0 0.0
2016-Jun-23 14:28N 40°41' W 074°09'0 0.0
2016-Jun-23 13:33N 40°41' W 074°09'0 0.0
2016-Jun-23 12:33N 40°41' W 074°09'0 0.0
2016-Jun-23 10:18N 40°41' W 074°09'0 0.0
2016-Jun-23 08:33N 40°41' W 074°09'0 0.0
2016-Jun-23 07:33N 40°41' W 074°09'0 0.0
2016-Jun-23 05:33N 40°41' W 074°09'0 0.0
2016-Jun-23 04:33N 40°41' W 074°09'0 0.0
2016-Jun-23 03:33N 40°41' W 074°09'0 0.0
2016-Jun-23 02:33N 40°41' W 074°09'0 0.0
2016-Jun-23 01:32N 40°41' W 074°09'0 0.0
2016-Jun-22 23:14N 40°41' W 074°09'0 0.1
2016-Jun-22 21:31N 40°41' W 074°09'3 3.1
2016-Jun-22 20:33N 40°39' W 074°06'11 8.7
2016-Jun-22 19:14N 40°30' W 073°56'17316.1
2016-Jun-22 08:32N 40°33' W 070°09'  
Track history (hours):
 
Tides and Currents Weather Stations Pressure Air Temp Water Temp Dewpoint Dewpoint Depression Visibility Wind Speed Wind Dir Waves Ship Positions

Albert Maersk

Last reported at 2016-Jun-30 06:31 UTC. Time now 2016-Jul-01 20:47 UTC.
Position N 25°54' W 079°53'.

MMSI: 220259928.

Date/timePositionNaut miles runAvg speedWind from/ knotsBaromVisibWave heightAir tempDewpointWater temp
2016-Jun-30 06:31N 25°54' W 079°53'1515.7
2016-Jun-30 05:33N 25°45' W 080°07'2 0.2
2016-Jun-29 18:32N 25°46' W 080°09'0 0.0
2016-Jun-29 17:32N 25°46' W 080°09'0 0.0
2016-Jun-29 16:32N 25°46' W 080°09'0 0.0
2016-Jun-29 10:30N 25°46' W 080°09'4 4.3
2016-Jun-29 09:33N 25°46' W 080°05'3 2.9
2016-Jun-29 08:34N 25°47' W 080°02'4 3.7
2016-Jun-29 07:33N 25°50' W 080°01'6 6.4
2016-Jun-29 06:33N 25°56' W 079°59'9 9.0
2016-Jun-29 05:33N 26°05' W 079°58'9 9.2
2016-Jun-29 04:33N 26°14' W 079°56'9 9.1
2016-Jun-29 03:33N 26°24' W 079°55'9 9.2
2016-Jun-29 02:33N 26°33' W 079°54'9 9.2
2016-Jun-29 01:33N 26°42' W 079°53'9 9.3
2016-Jun-29 00:32N 26°51' W 079°54'8 8.5
2016-Jun-28 23:33N 26°59' W 079°54'7 7.4
2016-Jun-28 22:33N 27°07' W 079°55'24311.0
2016-Jun-28 00:33N 31°09' W 080°16'2411.5
2016-Jun-27 22:26N 31°33' W 080°21'2211.7
2016-Jun-27 20:33N 31°52' W 080°34'1110.7
2016-Jun-27 19:33N 31°58' W 080°44'1111.4
2016-Jun-27 18:34N 32°03' W 080°56'7 7.2
2016-Jun-27 17:33N 32°05' W 081°04'5 4.5
2016-Jun-27 16:31N 32°08' W 081°08'0 0.4
2016-Jun-27 15:31N 32°08' W 081°09'0 0.0
2016-Jun-27 14:31N 32°08' W 081°09'0 0.0
2016-Jun-27 13:31N 32°08' W 081°09'0 0.0
2016-Jun-27 12:19N 32°08' W 081°09'0 0.0
2016-Jun-27 11:31N 32°08' W 081°09'0 0.0
2016-Jun-27 10:19N 32°08' W 081°09'0 0.0
2016-Jun-27 09:25N 32°08' W 081°09'0 0.0
2016-Jun-27 08:31N 32°08' W 081°09'0 0.0
2016-Jun-27 07:31N 32°08' W 081°09'0 0.0
2016-Jun-27 06:31N 32°08' W 081°09'0 0.0
2016-Jun-27 05:31N 32°08' W 081°09'0 0.0
2016-Jun-27 04:31N 32°08' W 081°09'0 0.0
2016-Jun-27 03:25N 32°08' W 081°09'0 0.0
2016-Jun-27 02:31N 32°08' W 081°09'0 0.0
2016-Jun-27 01:31N 32°08' W 081°09'0 0.0
2016-Jun-27 00:31N 32°08' W 081°09'0 0.0
2016-Jun-26 23:25N 32°08' W 081°09'0 0.0
2016-Jun-26 22:31N 32°08' W 081°09'0 0.0
2016-Jun-26 21:31N 32°08' W 081°09'0 0.0
2016-Jun-26 20:31N 32°08' W 081°09'0 0.0
2016-Jun-26 19:31N 32°08' W 081°09'0 0.0
2016-Jun-26 18:31N 32°08' W 081°09'0 0.0
2016-Jun-26 17:31N 32°08' W 081°09'0 0.0
2016-Jun-26 16:31N 32°08' W 081°09'2 1.6
2016-Jun-26 15:33N 32°07' W 081°08'6 5.8
2016-Jun-26 14:33N 32°06' W 081°01'1211.7
2016-Jun-26 13:33N 32°01' W 080°48'1111.0
2016-Jun-26 12:33N 31°56' W 080°37'1111.0
2016-Jun-26 11:32N 31°60' W 080°24'1110.4
2016-Jun-26 10:31N 32°04' W 080°13'49 1.8
2016-Jun-25 07:13N 32°37' W 079°31'812.0
2016-Jun-25 06:33N 32°39' W 079°22'17617.4
2016-Jun-24 20:24N 34°08' W 076°19'1517.5
2016-Jun-24 19:34N 34°18' W 076°06'1716.9
2016-Jun-24 18:34N 34°30' W 075°51'31018.9
2016-Jun-24 02:10N 39°25' W 073°55'1219.6
2016-Jun-24 01:34N 39°37' W 073°54'2019.9
2016-Jun-24 00:33N 39°57' W 073°52'2519.5
2016-Jun-23 23:15N 40°22' W 073°48'7 9.8
2016-Jun-23 22:33N 40°28' W 073°53'1313.1
2016-Jun-23 21:34N 40°38' W 074°04'4 3.5
2016-Jun-23 20:22N 40°41' W 074°08'1 0.1
2016-Jun-23 15:32N 40°41' W 074°09'0 0.0
2016-Jun-23 14:28N 40°41' W 074°09'0 0.0
2016-Jun-23 13:33N 40°41' W 074°09'0 0.0
2016-Jun-23 12:33N 40°41' W 074°09'0 0.0
2016-Jun-23 10:18N 40°41' W 074°09'0 0.0
2016-Jun-23 08:33N 40°41' W 074°09'0 0.0
2016-Jun-23 07:33N 40°41' W 074°09'0 0.0
2016-Jun-23 05:33N 40°41' W 074°09'0 0.0
2016-Jun-23 04:33N 40°41' W 074°09'0 0.0
2016-Jun-23 03:33N 40°41' W 074°09'0 0.0
2016-Jun-23 02:33N 40°41' W 074°09'0 0.0
2016-Jun-23 01:32N 40°41' W 074°09'0 0.0
2016-Jun-22 23:14N 40°41' W 074°09'0 0.1
2016-Jun-22 21:31N 40°41' W 074°09'3 3.1
2016-Jun-22 20:33N 40°39' W 074°06'11 8.7
2016-Jun-22 19:14N 40°30' W 073°56'17316.1
2016-Jun-22 08:32N 40°33' W 070°09'  

Dump ship's entire track history